createdAt,value
2023-07-24T00:00:07.494Z,0
2023-07-24T00:03:08.174Z,0
2023-07-24T00:06:07.588Z,0
2023-07-24T00:09:07.544Z,0
2023-07-24T00:12:07.575Z,0
2023-07-24T00:15:07.531Z,0
2023-07-24T00:18:07.739Z,0
2023-07-24T00:21:07.430Z,0
2023-07-24T00:24:07.592Z,0
2023-07-24T00:27:07.603Z,0
2023-07-24T00:30:07.553Z,0
2023-07-24T00:33:07.581Z,0
2023-07-24T00:36:07.449Z,0
2023-07-24T00:39:07.409Z,0
2023-07-24T00:42:07.509Z,0
2023-07-24T00:45:11.910Z,0
2023-07-24T00:48:07.677Z,0
2023-07-24T00:51:07.414Z,0
2023-07-24T00:54:07.477Z,0
2023-07-24T00:57:07.466Z,0
2023-07-24T01:00:07.436Z,0
2023-07-24T01:03:07.868Z,0
2023-07-24T01:06:07.492Z,0
2023-07-24T01:09:07.617Z,0
2023-07-24T01:12:07.426Z,0
2023-07-24T01:15:07.462Z,0
2023-07-24T01:18:07.711Z,0
2023-07-24T01:21:07.527Z,0
2023-07-24T01:24:07.580Z,0
2023-07-24T01:27:07.719Z,0
2023-07-24T01:30:07.460Z,0
2023-07-24T01:33:07.899Z,0
2023-07-24T01:36:07.587Z,0
2023-07-24T01:39:07.437Z,0
2023-07-24T01:42:07.485Z,0
2023-07-24T01:45:07.500Z,0
2023-07-24T01:48:07.903Z,0
2023-07-24T01:51:07.580Z,0
2023-07-24T01:54:07.452Z,0
2023-07-24T01:57:07.565Z,0
2023-07-24T02:00:07.480Z,0
2023-07-24T02:03:07.909Z,0
2023-07-24T02:06:07.500Z,0
2023-07-24T02:09:07.451Z,0
2023-07-24T02:12:07.479Z,0
2023-07-24T02:15:07.803Z,0
2023-07-24T02:18:07.585Z,0
2023-07-24T02:21:07.470Z,0
2023-07-24T02:24:07.433Z,0
2023-07-24T02:27:07.515Z,0
2023-07-24T02:30:07.487Z,0
2023-07-24T02:33:07.598Z,0
2023-07-24T02:36:07.525Z,0
2023-07-24T02:39:07.436Z,0
2023-07-24T02:42:07.463Z,0
2023-07-24T02:45:07.417Z,0
2023-07-24T02:48:07.721Z,0
2023-07-24T02:51:07.439Z,3
2023-07-24T02:54:07.559Z,3
2023-07-24T02:57:07.445Z,3
2023-07-24T03:00:07.448Z,7
2023-07-24T03:03:08.155Z,10
2023-07-24T03:06:07.475Z,17
2023-07-24T03:09:07.474Z,23
2023-07-24T03:12:07.510Z,33
2023-07-24T03:15:07.426Z,47
2023-07-24T03:18:07.686Z,63
2023-07-24T03:21:07.460Z,90
2023-07-24T03:24:07.514Z,120
2023-07-24T03:27:07.551Z,157
2023-07-24T03:30:07.564Z,200
2023-07-24T03:33:07.675Z,250
2023-07-24T03:36:07.480Z,300
2023-07-24T03:39:07.500Z,357
2023-07-24T03:42:07.498Z,453
2023-07-24T03:45:07.926Z,543
2023-07-24T03:48:07.684Z,613
2023-07-24T03:51:07.633Z,683
2023-07-24T03:54:07.509Z,757
2023-07-24T03:57:08.805Z,840
2023-07-24T04:00:07.638Z,907
2023-07-24T04:03:08.007Z,977
2023-07-24T04:06:07.492Z,1060
2023-07-24T04:09:07.499Z,1167
2023-07-24T04:12:07.518Z,1273
2023-07-24T04:15:07.674Z,1300
2023-07-24T04:18:07.788Z,1280
2023-07-24T04:21:07.481Z,1337
2023-07-24T04:24:07.511Z,1317
2023-07-24T04:27:07.564Z,1377
2023-07-24T04:30:07.536Z,1480
2023-07-24T04:33:07.782Z,1813
2023-07-24T04:36:07.492Z,2107
2023-07-24T04:39:07.524Z,2387
2023-07-24T04:42:07.519Z,2690
2023-07-24T04:45:08.026Z,2937
2023-07-24T04:48:07.885Z,3813
2023-07-24T04:51:07.838Z,4520
2023-07-24T04:54:07.500Z,4463
2023-07-24T04:57:07.596Z,4820
2023-07-24T05:00:07.682Z,4730
2023-07-24T05:03:07.798Z,3177
2023-07-24T05:06:07.503Z,3783
2023-07-24T05:09:07.490Z,5673
2023-07-24T05:12:07.632Z,6070
2023-07-24T05:15:07.400Z,6530
2023-07-24T05:18:07.854Z,7033
2023-07-24T05:21:07.548Z,7170
2023-07-24T05:24:07.691Z,8747
2023-07-24T05:27:07.428Z,11913
2023-07-24T05:30:07.841Z,12757
2023-07-24T05:33:07.907Z,11977
2023-07-24T05:36:07.643Z,7980
2023-07-24T05:39:07.543Z,7087
2023-07-24T05:42:07.501Z,7637
2023-07-24T05:45:07.594Z,8497
2023-07-24T05:48:07.756Z,8457
2023-07-24T05:51:08.120Z,8123
2023-07-24T05:54:07.551Z,7557
2023-07-24T05:57:07.525Z,6967
2023-07-24T06:00:07.563Z,6570
2023-07-24T06:03:11.144Z,6690
2023-07-24T06:06:07.435Z,7960
2023-07-24T06:09:07.535Z,7000
2023-07-24T06:12:07.510Z,5600
2023-07-24T06:15:07.502Z,6243
2023-07-24T06:18:07.874Z,7757
2023-07-24T06:21:07.504Z,8023
2023-07-24T06:24:07.550Z,7030
2023-07-24T06:27:07.562Z,8603
2023-07-24T06:30:22.737Z,10773
2023-07-24T06:33:07.714Z,12113
2023-07-24T06:36:07.496Z,11323
2023-07-24T06:39:07.577Z,15677
2023-07-24T06:42:07.514Z,22773
2023-07-24T06:45:10.659Z,16177
2023-07-24T06:48:07.717Z,12993
2023-07-24T06:51:07.790Z,12287
2023-07-24T06:54:07.644Z,14910
2023-07-24T06:57:07.538Z,15367
2023-07-24T07:00:07.917Z,14833
2023-07-24T07:03:08.039Z,15693
2023-07-24T07:06:07.692Z,18580
2023-07-24T07:09:07.522Z,16627
2023-07-24T07:12:07.521Z,15620
2023-07-24T07:15:07.559Z,13760
2023-07-24T07:18:07.810Z,11290
2023-07-24T07:21:07.423Z,11890
2023-07-24T07:24:07.513Z,13540
2023-07-24T07:27:07.417Z,12847
2023-07-24T07:30:07.646Z,12650
2023-07-24T07:33:07.750Z,13017
2023-07-24T07:36:07.545Z,20090
2023-07-24T07:39:07.534Z,26377
2023-07-24T07:42:25.080Z,25543
2023-07-24T07:45:07.550Z,20130
2023-07-24T07:48:07.755Z,20817
2023-07-24T07:51:07.512Z,23647
2023-07-24T07:54:07.560Z,20930
2023-07-24T07:57:07.542Z,17747
2023-07-24T08:00:07.692Z,14487
2023-07-24T08:03:08.045Z,19517
2023-07-24T08:06:07.593Z,19787
2023-07-24T08:09:07.543Z,21287
2023-07-24T08:12:10.721Z,22193
2023-07-24T08:15:07.550Z,22627
2023-07-24T08:18:08.517Z,25107
2023-07-24T08:21:07.489Z,26527
2023-07-24T08:24:07.569Z,27723
2023-07-24T08:27:07.651Z,32103
2023-07-24T08:30:07.604Z,47177
2023-07-24T08:33:07.812Z,26970
2023-07-24T08:36:07.701Z,46710
2023-07-24T08:39:07.592Z,29677
2023-07-24T08:42:07.537Z,23627
2023-07-24T08:45:07.545Z,25123
2023-07-24T08:48:07.698Z,20970
2023-07-24T08:51:07.581Z,18977
2023-07-24T08:54:07.501Z,20513
2023-07-24T08:57:08.544Z,14217
2023-07-24T09:00:07.755Z,9997
2023-07-24T09:03:07.968Z,3203
2023-07-24T09:06:07.737Z,2353
2023-07-24T09:09:07.570Z,5657
2023-07-24T09:12:07.543Z,10733
2023-07-24T09:15:08.598Z,16323
2023-07-24T09:18:08.877Z,19877
2023-07-24T09:21:07.480Z,19483
2023-07-24T09:24:07.550Z,19687
2023-07-24T09:27:07.948Z,21157
2023-07-24T09:30:07.693Z,32430
2023-07-24T09:33:07.635Z,48570
2023-07-24T09:36:07.632Z,51803
2023-07-24T09:39:07.581Z,50577
2023-07-24T09:42:07.508Z,40000
2023-07-24T09:45:07.715Z,42153
2023-07-24T09:51:07.546Z,29997
2023-07-24T09:54:07.567Z,44860
2023-07-24T09:57:28.886Z,59810
2023-07-24T10:00:07.615Z,60557
2023-07-24T10:03:07.855Z,60507
2023-07-24T10:06:07.521Z,58327
2023-07-24T10:09:07.541Z,60337
2023-07-24T10:12:07.562Z,53317
2023-07-24T10:15:07.699Z,20640
2023-07-24T10:18:07.855Z,71080
2023-07-24T10:21:07.559Z,64660
2023-07-24T10:24:07.518Z,45707
2023-07-24T10:27:07.526Z,41873
2023-07-24T10:30:35.739Z,40213
2023-07-24T10:33:08.396Z,54653
2023-07-24T10:36:07.574Z,20090
2023-07-24T10:39:07.521Z,76640
2023-07-24T10:42:07.521Z,81610
2023-07-24T10:45:07.456Z,73810
2023-07-24T10:48:07.735Z,73900
2023-07-24T10:51:07.581Z,74833
2023-07-24T10:54:07.632Z,72947
2023-07-24T10:57:07.633Z,73043
2023-07-24T11:00:07.624Z,74040
2023-07-24T11:03:07.868Z,16960
2023-07-24T11:06:07.574Z,39270
2023-07-24T11:09:07.594Z,75800
2023-07-24T11:12:07.489Z,13910
2023-07-24T11:15:07.823Z,16037
2023-07-24T11:18:07.749Z,76247
2023-07-24T11:21:07.526Z,81570
2023-07-24T11:24:07.480Z,75697
2023-07-24T11:27:07.521Z,32667
2023-07-24T11:30:07.471Z,81547
2023-07-24T11:33:07.923Z,75717
2023-07-24T11:36:07.636Z,44050
2023-07-24T11:39:07.543Z,80927
2023-07-24T11:42:07.496Z,30743
2023-07-24T11:45:07.512Z,29453
2023-07-24T11:48:07.727Z,85113
2023-07-24T11:51:07.509Z,24400
2023-07-24T11:54:07.462Z,20993
2023-07-24T11:57:07.467Z,17143
2023-07-24T12:00:07.537Z,13120
2023-07-24T12:03:08.865Z,11970
2023-07-24T12:06:07.616Z,8297
2023-07-24T12:09:07.636Z,11563
2023-07-24T12:12:07.674Z,22540
2023-07-24T12:15:07.539Z,21683
2023-07-24T12:18:09.975Z,22257
2023-07-24T12:21:07.610Z,24110
2023-07-24T12:24:07.482Z,23767
2023-07-24T12:27:07.541Z,25170
2023-07-24T12:30:07.652Z,27193
2023-07-24T12:33:07.815Z,20500
2023-07-24T12:36:07.667Z,21657
2023-07-24T12:39:07.497Z,30683
2023-07-24T12:42:07.598Z,20733
2023-07-24T12:45:07.490Z,19460
2023-07-24T12:48:08.002Z,49370
2023-07-24T12:51:07.490Z,36480
2023-07-24T12:57:07.821Z,27007
2023-07-24T13:00:07.676Z,24267
2023-07-24T13:03:07.960Z,23087
2023-07-24T13:06:07.598Z,21433
2023-07-24T13:09:07.735Z,24713
2023-07-24T13:12:07.541Z,16493
2023-07-24T13:15:07.473Z,18940
2023-07-24T13:18:34.008Z,17963
2023-07-24T13:21:07.784Z,22830
2023-07-24T13:24:07.518Z,20400
2023-07-24T13:27:07.557Z,17147
2023-07-24T13:30:07.535Z,16037
2023-07-24T13:33:07.685Z,17853
2023-07-24T13:36:07.562Z,19917
2023-07-24T13:39:07.559Z,16553
2023-07-24T13:42:07.592Z,14527
2023-07-24T13:45:07.525Z,19120
2023-07-24T13:48:07.897Z,18930
2023-07-24T13:51:07.467Z,10460
2023-07-24T13:54:10.289Z,10027
2023-07-24T13:57:07.520Z,17620
2023-07-24T14:00:07.731Z,22633
2023-07-24T14:03:08.255Z,19693
2023-07-24T14:06:07.619Z,45793
2023-07-24T14:09:07.506Z,26933
2023-07-24T14:12:07.786Z,19060
2023-07-24T14:15:07.620Z,17807
2023-07-24T14:18:07.641Z,16027
2023-07-24T14:21:07.587Z,49943
2023-07-24T14:24:07.584Z,49000
2023-07-24T14:27:07.628Z,48760
2023-07-24T14:30:07.594Z,48897
2023-07-24T14:33:07.774Z,51367
2023-07-24T14:36:07.603Z,23193
2023-07-24T14:39:07.452Z,22893
2023-07-24T14:42:07.564Z,21843
2023-07-24T14:45:07.640Z,16757
2023-07-24T14:48:07.788Z,13097
2023-07-24T14:51:07.558Z,11987
2023-07-24T14:54:07.522Z,11600
2023-07-24T14:57:31.098Z,9667
2023-07-24T15:00:07.821Z,6910
2023-07-24T15:03:07.800Z,4797
2023-07-24T15:06:07.585Z,3327
2023-07-24T15:09:07.549Z,1760
2023-07-24T15:12:07.981Z,547
2023-07-24T15:15:07.630Z,223
2023-07-24T15:18:07.942Z,133
2023-07-24T15:21:07.434Z,223
2023-07-24T15:24:07.516Z,350
2023-07-24T15:27:07.470Z,280
2023-07-24T15:30:07.561Z,340
2023-07-24T15:33:07.712Z,383
2023-07-24T15:36:07.563Z,657
2023-07-24T15:39:07.666Z,917
2023-07-24T15:42:07.617Z,1630
2023-07-24T15:45:07.578Z,2523
2023-07-24T15:48:07.648Z,3437
2023-07-24T15:51:07.531Z,4233
2023-07-24T15:54:07.662Z,5573
2023-07-24T15:57:07.439Z,5780
2023-07-24T16:00:07.639Z,4577
2023-07-24T16:03:08.187Z,4327
2023-07-24T16:06:07.523Z,6680
2023-07-24T16:09:07.478Z,9377
2023-07-24T16:12:07.806Z,6950
2023-07-24T16:15:07.507Z,20933
2023-07-24T16:21:10.182Z,36813
2023-07-24T16:24:07.466Z,40580
2023-07-24T16:27:10.971Z,18620
2023-07-24T16:30:07.835Z,18960
2023-07-24T16:33:07.728Z,16280
2023-07-24T16:36:07.445Z,17217
2023-07-24T16:39:08.932Z,27710
2023-07-24T16:42:07.445Z,28903
2023-07-24T16:45:28.702Z,26720
2023-07-24T16:48:10.770Z,23623
2023-07-24T16:51:07.532Z,22637
2023-07-24T16:54:07.743Z,21007
2023-07-24T16:57:07.547Z,19620
2023-07-24T17:00:07.554Z,19087
2023-07-24T17:03:07.951Z,13293
2023-07-24T17:06:07.563Z,10963
2023-07-24T17:09:07.577Z,4397
2023-07-24T17:12:11.337Z,4460
2023-07-24T17:15:07.538Z,4420
2023-07-24T17:18:07.792Z,3907
2023-07-24T17:21:07.503Z,5083
2023-07-24T17:24:07.673Z,5670
2023-07-24T17:27:07.739Z,4257
2023-07-24T17:30:07.624Z,4970
2023-07-24T17:33:07.921Z,6673
2023-07-24T17:36:07.473Z,4313
2023-07-24T17:39:07.557Z,2660
2023-07-24T17:42:07.719Z,2517
2023-07-24T17:45:07.537Z,2550
2023-07-24T17:48:12.044Z,2037
2023-07-24T17:51:07.488Z,2133
2023-07-24T17:54:07.467Z,2820
2023-07-24T17:57:07.488Z,3697
2023-07-24T18:00:07.818Z,5247
2023-07-24T18:03:07.941Z,5050
2023-07-24T18:06:07.530Z,3763
2023-07-24T18:09:07.490Z,3220
2023-07-24T18:12:07.499Z,3133
2023-07-24T18:15:07.614Z,2933
2023-07-24T18:18:07.720Z,2260
2023-07-24T18:21:15.445Z,1860
2023-07-24T18:24:07.583Z,1703
2023-07-24T18:27:07.521Z,1557
2023-07-24T18:30:07.671Z,1430
2023-07-24T18:33:07.745Z,1290
2023-07-24T18:36:07.480Z,1157
2023-07-24T18:39:07.541Z,1043
2023-07-24T18:42:09.194Z,937
2023-07-24T18:45:07.510Z,840
2023-07-24T18:48:07.841Z,783
2023-07-24T18:51:07.513Z,767
2023-07-24T18:54:07.557Z,640
2023-07-24T18:57:07.454Z,543
2023-07-24T19:00:07.633Z,453
2023-07-24T19:03:07.863Z,400
2023-07-24T19:06:07.490Z,347
2023-07-24T19:09:07.459Z,283
2023-07-24T19:12:07.493Z,237
2023-07-24T19:15:07.507Z,207
2023-07-24T19:18:07.918Z,177
2023-07-24T19:21:07.542Z,157
2023-07-24T19:24:07.452Z,120
2023-07-24T19:27:07.456Z,90
2023-07-24T19:30:07.774Z,67
2023-07-24T19:33:07.703Z,47
2023-07-24T19:36:07.908Z,33
2023-07-24T19:39:07.513Z,23
2023-07-24T19:42:08.267Z,17
2023-07-24T19:45:07.501Z,10
2023-07-24T19:48:07.951Z,7
2023-07-24T19:51:07.489Z,7
2023-07-24T19:54:07.519Z,3
2023-07-24T19:57:07.471Z,3
2023-07-24T20:00:07.533Z,3
2023-07-24T20:03:07.936Z,0
2023-07-24T20:06:13.669Z,0
2023-07-24T20:09:07.548Z,0
2023-07-24T20:12:07.469Z,0
2023-07-24T20:15:07.483Z,0
2023-07-24T20:18:07.763Z,0
2023-07-24T20:21:07.466Z,0
2023-07-24T20:24:07.449Z,0
2023-07-24T20:27:07.416Z,0
2023-07-24T20:30:07.530Z,0
2023-07-24T20:33:07.667Z,0
2023-07-24T20:36:07.406Z,0
2023-07-24T20:39:07.686Z,0
2023-07-24T20:42:07.415Z,0
2023-07-24T20:45:07.541Z,0
2023-07-24T20:48:07.588Z,0
2023-07-24T20:51:07.481Z,0
2023-07-24T20:54:07.495Z,0
2023-07-24T20:57:08.102Z,0
2023-07-24T21:00:07.468Z,0
2023-07-24T21:03:07.934Z,0
2023-07-24T21:06:07.519Z,0
2023-07-24T21:09:07.477Z,0
2023-07-24T21:12:08.182Z,0
2023-07-24T21:15:07.451Z,0
2023-07-24T21:18:07.420Z,0
2023-07-24T21:21:12.359Z,0
2023-07-24T21:24:07.469Z,0
2023-07-24T21:27:07.399Z,0
2023-07-24T21:30:07.478Z,0
2023-07-24T21:33:07.561Z,0
2023-07-24T21:36:07.432Z,0
2023-07-24T21:39:07.437Z,0
2023-07-24T21:42:07.524Z,0
2023-07-24T21:45:07.431Z,0
2023-07-24T21:48:07.630Z,0
2023-07-24T21:51:07.424Z,0
2023-07-24T21:54:07.624Z,0
2023-07-24T21:57:07.488Z,0
2023-07-24T22:00:08.250Z,0
2023-07-24T22:03:07.849Z,0
2023-07-24T22:06:11.383Z,0
2023-07-24T22:09:07.448Z,0
2023-07-24T22:12:07.387Z,0
2023-07-24T22:15:07.531Z,0
2023-07-24T22:18:07.787Z,0
2023-07-24T22:21:07.536Z,0
2023-07-24T22:24:07.464Z,0
2023-07-24T22:27:08.190Z,0
2023-07-24T22:30:07.454Z,0
2023-07-24T22:33:07.624Z,0
2023-07-24T22:36:07.455Z,0
2023-07-24T22:39:07.483Z,0
2023-07-24T22:42:07.459Z,0
2023-07-24T22:45:07.602Z,0
2023-07-24T22:48:07.849Z,0
2023-07-24T22:51:07.450Z,0
2023-07-24T22:54:07.494Z,0
2023-07-24T22:57:07.431Z,0
2023-07-24T23:00:07.467Z,0
2023-07-24T23:03:07.916Z,0
2023-07-24T23:06:07.543Z,0
2023-07-24T23:09:07.464Z,0
2023-07-24T23:12:07.496Z,0
2023-07-24T23:15:07.505Z,0
2023-07-24T23:18:07.748Z,0
2023-07-24T23:21:07.404Z,0
2023-07-24T23:24:23.046Z,0
2023-07-24T23:27:07.410Z,0
2023-07-24T23:30:07.453Z,0
2023-07-24T23:33:07.663Z,0
2023-07-24T23:36:07.454Z,0
2023-07-24T23:39:07.530Z,0
2023-07-24T23:42:07.443Z,0
2023-07-24T23:45:07.431Z,0
2023-07-24T23:48:07.520Z,0
2023-07-24T23:51:07.433Z,0
2023-07-24T23:54:07.431Z,0
2023-07-24T23:57:07.438Z,0
